Time;durP1;ratioP1;P1;durP2;ratioP2;P2;SDS_P1;SDS_P2;PMS_P1;PMS_P2;Temp;Humidity;BMP_temperature;BMP_pressure;BME280_temperature;BME280_humidity;BME280_pressure;Samples;Min_cycle;Max_cycle;Signal;HPM_P1;HPM_P2
2021/08/25 00:01:33;;;;;;;7.23;5.20;;;13.40;99.90;;;;;;5075907;28;20177;-90
2021/08/25 00:03:58;;;;;;;12.00;5.40;;;13.40;99.90;;;;;;5075077;28;20577;-90
2021/08/25 00:06:24;;;;;;;6.20;5.40;;;13.40;99.90;;;;;;5077228;28;20184;-90
2021/08/25 00:08:50;;;;;;;8.73;5.83;;;13.40;99.90;;;;;;5086039;28;20196;-90
2021/08/25 00:11:16;;;;;;;6.57;5.30;;;13.40;99.90;;;;;;5095246;28;20211;-91
2021/08/25 00:13:42;;;;;;;9.33;6.03;;;13.40;99.90;;;;;;5097006;28;20201;-90
2021/08/25 00:16:08;;;;;;;6.23;5.40;;;13.40;99.90;;;;;;5087967;28;20231;-90
2021/08/25 00:18:33;;;;;;;7.57;5.60;;;13.40;99.90;;;;;;5075385;28;20288;-90
2021/08/25 00:20:59;;;;;;;6.30;5.70;;;13.40;99.90;;;;;;5076478;28;20176;-90
2021/08/25 00:23:25;;;;;;;5.93;5.33;;;13.30;99.90;;;;;;5076432;28;20180;-90
2021/08/25 00:25:53;;;;;;;6.57;5.63;;;13.30;99.90;;;;;;5075601;28;20176;-90
2021/08/25 00:28:20;;;;;;;8.43;5.80;;;13.30;99.90;;;;;;5075403;28;20224;-90
2021/08/25 00:30:45;;;;;;;5.63;5.10;;;13.20;99.90;;;;;;5075846;28;20172;-90
2021/08/25 00:33:11;;;;;;;7.70;5.13;;;13.20;99.90;;;;;;5075265;28;20554;-90
2021/08/25 00:35:37;;;;;;;6.97;5.43;;;13.10;99.90;;;;;;5075972;28;20720;-90
2021/08/25 00:38:02;;;;;;;6.87;5.40;;;13.10;99.90;;;;;;5075074;28;20200;-90
2021/08/25 00:40:28;;;;;;;6.67;5.40;;;13.10;99.90;;;;;;5074395;28;20200;-90
2021/08/25 00:42:54;;;;;;;5.90;5.07;;;13.10;99.90;;;;;;5074020;28;20184;-90
2021/08/25 00:45:19;;;;;;;6.60;5.40;;;13.10;99.90;;;;;;5074148;28;20187;-90
2021/08/25 00:47:45;;;;;;;5.73;5.13;;;13.20;99.90;;;;;;5073433;28;20576;-91
2021/08/25 00:50:13;;;;;;;8.00;5.83;;;13.10;99.90;;;;;;5074308;28;20189;-90
2021/08/25 00:52:40;;;;;;;9.20;5.73;;;13.10;99.90;;;;;;5075152;28;20263;-90
2021/08/25 00:55:07;;;;;;;7.47;5.43;;;13.10;99.90;;;;;;5075169;28;20200;-90
2021/08/25 00:57:35;;;;;;;8.17;6.00;;;13.10;99.90;;;;;;5074265;28;20604;-90
2021/08/25 01:00:04;;;;;;;6.00;5.40;;;13.10;99.90;;;;;;5073647;28;20690;-90
2021/08/25 01:02:42;;;;;;;6.73;6.03;;;13.10;99.90;;;;;;5073899;28;20238;-90
2021/08/25 01:05:08;;;;;;;5.77;5.27;;;13.10;99.90;;;;;;5075245;28;20173;-90
2021/08/25 01:07:39;;;;;;;6.07;5.47;;;13.10;99.90;;;;;;5073841;28;20207;-90
2021/08/25 01:10:31;;;;;;;5.70;5.20;;;13.10;99.90;;;;;;5075205;28;20576;-90
2021/08/25 01:13:04;;;;;;;5.47;4.97;;;13.20;99.90;;;;;;5074986;28;20193;-90
2021/08/25 01:15:35;;;;;;;6.50;5.63;;;13.10;99.90;;;;;;5073602;28;20201;-90
2021/08/25 01:18:04;;;;;;;5.90;5.20;;;13.10;99.90;;;;;;5073710;28;20200;-90
2021/08/25 01:20:31;;;;;;;5.00;4.47;;;13.10;99.90;;;;;;5073835;28;20180;-90
2021/08/25 01:22:58;;;;;;;4.90;4.40;;;13.10;99.90;;;;;;5073722;28;20177;-90
2021/08/25 01:25:25;;;;;;;5.70;5.20;;;13.20;99.90;;;;;;5075005;28;20173;-90
2021/08/25 01:27:57;;;;;;;5.97;4.40;;;13.20;99.90;;;;;;5075020;28;20203;-90
2021/08/25 01:30:27;;;;;;;4.87;4.30;;;13.20;99.90;;;;;;5073669;28;20180;-90
2021/08/25 01:32:52;;;;;;;5.37;4.70;;;13.10;99.90;;;;;;5073573;28;20173;-90
2021/08/25 01:35:18;;;;;;;5.40;4.30;;;13.10;99.90;;;;;;5075235;28;20558;-90
2021/08/25 01:37:46;;;;;;;7.70;4.87;;;13.10;99.90;;;;;;5073362;28;20199;-90
2021/08/25 01:40:12;;;;;;;6.30;4.90;;;13.10;99.90;;;;;;5074631;28;20263;-90
2021/08/25 01:42:37;;;;;;;5.47;4.50;;;13.10;99.90;;;;;;5073473;28;20268;-90
2021/08/25 01:45:05;;;;;;;5.30;4.60;;;13.00;99.90;;;;;;5073635;28;20701;-90
2021/08/25 01:47:30;;;;;;;5.67;5.07;;;13.10;99.90;;;;;;5073639;28;20211;-90
2021/08/25 01:49:56;;;;;;;5.73;4.83;;;13.00;99.90;;;;;;5073911;28;20545;-90
2021/08/25 01:52:22;;;;;;;7.50;4.80;;;13.00;99.90;;;;;;5073440;28;20181;-90
2021/08/25 01:54:51;;;;;;;5.37;4.87;;;13.00;99.90;;;;;;5073172;28;20666;-90
2021/08/25 01:57:17;;;;;;;6.17;4.70;;;13.00;99.90;;;;;;5073456;28;20219;-89
2021/08/25 01:59:42;;;;;;;5.37;4.87;;;13.00;99.90;;;;;;5076193;28;20522;-90
2021/08/25 02:02:08;;;;;;;5.53;4.73;;;13.00;99.90;;;;;;5079534;28;20629;-90
2021/08/25 02:04:34;;;;;;;6.90;5.47;;;13.00;99.90;;;;;;5077325;28;20181;-90
2021/08/25 02:07:01;;;;;;;5.80;4.97;;;13.00;99.90;;;;;;5077167;28;20207;-90
2021/08/25 02:09:27;;;;;;;7.07;5.33;;;13.00;99.90;;;;;;5077409;28;20641;-90
2021/08/25 02:11:53;;;;;;;7.03;6.23;;;13.00;99.90;;;;;;5078840;28;20180;-90
2021/08/25 02:14:18;;;;;;;9.93;6.77;;;12.90;99.90;;;;;;5077013;28;20180;-90
2021/08/25 02:16:44;;;;;;;8.90;7.23;;;12.90;99.90;;;;;;5078286;28;20180;-91
2021/08/25 02:19:10;;;;;;;8.73;6.73;;;13.00;99.90;;;;;;5077109;28;20241;-90
2021/08/25 02:21:36;;;;;;;12.40;7.33;;;13.00;99.90;;;;;;5077213;28;20630;-90
2021/08/25 02:24:02;;;;;;;11.63;7.77;;;12.90;99.90;;;;;;5076783;28;20223;-90
2021/08/25 02:26:27;;;;;;;9.67;7.90;;;13.00;99.90;;;;;;5076987;28;20180;-90
2021/08/25 02:28:54;;;;;;;12.30;9.33;;;12.90;99.90;;;;;;5076912;28;20207;-90
2021/08/25 02:31:20;;;;;;;10.67;8.20;;;12.90;99.90;;;;;;5076817;28;20179;-90
2021/08/25 02:33:47;;;;;;;11.13;8.57;;;12.90;99.90;;;;;;5076630;28;20192;-90
2021/08/25 02:36:14;;;;;;;8.20;7.20;;;12.80;99.90;;;;;;5078087;28;20196;-90
2021/08/25 02:38:40;;;;;;;8.83;7.40;;;12.90;99.90;;;;;;5089140;28;20200;-90
2021/08/25 02:41:08;;;;;;;9.07;6.53;;;12.80;99.90;;;;;;5095186;28;20184;-90
2021/08/25 02:43:34;;;;;;;7.37;6.30;;;12.80;99.90;;;;;;5099153;28;20249;-90
2021/08/25 02:46:01;;;;;;;10.37;7.20;;;12.80;99.90;;;;;;5100122;28;20173;-90
2021/08/25 02:48:26;;;;;;;7.97;6.33;;;12.80;99.90;;;;;;5082639;28;20197;-90
2021/08/25 02:50:52;;;;;;;7.73;6.63;;;12.80;99.90;;;;;;5077638;28;20172;-90
2021/08/25 02:53:18;;;;;;;7.20;6.47;;;12.80;99.90;;;;;;5075918;28;20183;-90
2021/08/25 02:55:47;;;;;;;6.47;5.63;;;12.80;99.90;;;;;;5076168;28;20693;-90
2021/08/25 02:58:13;;;;;;;7.90;6.13;;;12.80;99.90;;;;;;5077169;28;20694;-90
2021/08/25 03:00:40;;;;;;;8.40;6.63;;;12.90;99.90;;;;;;5076282;28;20176;-90
2021/08/25 03:03:05;;;;;;;8.30;6.03;;;12.90;99.90;;;;;;5077521;28;20179;-90
2021/08/25 03:05:31;;;;;;;8.23;6.67;;;12.90;99.90;;;;;;5075939;28;20181;-90
2021/08/25 03:07:57;;;;;;;10.33;6.50;;;12.80;99.90;;;;;;5077270;28;20243;-90
2021/08/25 03:10:22;;;;;;;7.70;5.70;;;12.80;99.90;;;;;;5075326;28;20191;-90
2021/08/25 03:12:48;;;;;;;9.00;6.90;;;12.90;99.90;;;;;;5075807;28;20180;-90
2021/08/25 03:15:17;;;;;;;8.27;6.07;;;12.80;99.90;;;;;;5075825;28;20212;-90
2021/08/25 03:17:43;;;;;;;8.73;6.70;;;12.80;99.90;;;;;;5075721;28;20193;-90
2021/08/25 03:20:11;;;;;;;7.10;6.37;;;12.80;99.90;;;;;;5077033;28;20173;-90
2021/08/25 03:22:38;;;;;;;7.93;6.07;;;12.80;99.90;;;;;;5075673;28;20542;-90
2021/08/25 03:25:05;;;;;;;8.43;6.43;;;12.80;99.90;;;;;;5075812;28;20196;-90
2021/08/25 03:27:31;;;;;;;8.70;7.10;;;12.80;99.90;;;;;;5075457;28;20292;-90
2021/08/25 03:29:57;;;;;;;7.20;6.50;;;12.80;99.90;;;;;;5076749;28;20176;-90
2021/08/25 03:32:23;;;;;;;9.27;6.77;;;12.80;99.90;;;;;;5075418;28;20191;-90
2021/08/25 03:34:49;;;;;;;7.80;6.60;;;12.80;99.90;;;;;;5075429;28;20208;-90
2021/08/25 03:37:14;;;;;;;7.70;6.90;;;12.80;99.90;;;;;;5075447;28;20205;-90
2021/08/25 03:39:40;;;;;;;10.77;6.67;;;12.80;99.90;;;;;;5075425;28;20210;-90
2021/08/25 03:42:08;;;;;;;9.23;6.70;;;12.80;99.90;;;;;;5075212;28;20710;-90
2021/08/25 03:44:37;;;;;;;9.00;6.73;;;12.90;99.90;;;;;;5075031;28;20203;-90
2021/08/25 03:47:07;;;;;;;6.87;6.17;;;12.90;99.90;;;;;;5075849;28;20204;-90
2021/08/25 03:49:34;;;;;;;7.40;6.53;;;12.80;99.90;;;;;;5075985;28;20622;-90
2021/08/25 03:52:00;;;;;;;9.07;7.00;;;12.80;99.90;;;;;;5079709;28;20661;-91
2021/08/25 03:54:27;;;;;;;9.70;7.63;;;12.80;99.90;;;;;;5081713;28;20215;-90
2021/08/25 03:56:54;;;;;;;7.80;6.70;;;12.80;99.90;;;;;;5079953;28;20180;-89
2021/08/25 03:59:20;;;;;;;7.73;6.97;;;12.80;99.90;;;;;;5078192;28;20274;-90
2021/08/25 04:01:45;;;;;;;9.73;7.37;;;12.80;99.90;;;;;;5079170;28;20655;-90
2021/08/25 04:04:11;;;;;;;8.53;7.00;;;12.80;99.90;;;;;;5081686;28;20177;-90
2021/08/25 04:06:38;;;;;;;8.03;6.90;;;12.90;99.90;;;;;;5078064;28;20181;-90
2021/08/25 04:09:04;;;;;;;8.27;7.47;;;12.90;99.90;;;;;;5084318;28;20738;-90
2021/08/25 04:11:31;;;;;;;8.70;7.80;;;13.00;99.90;;;;;;5083993;28;20276;-90
2021/08/25 04:13:58;;;;;;;8.53;7.30;;;12.90;99.90;;;;;;5080952;28;20622;-90
2021/08/25 04:16:24;;;;;;;10.57;7.73;;;12.90;99.90;;;;;;5082234;28;20292;-90
2021/08/25 04:18:49;;;;;;;7.87;7.03;;;12.90;99.90;;;;;;5081882;28;20217;-91
2021/08/25 04:21:15;;;;;;;9.80;7.17;;;12.90;99.90;;;;;;5083083;28;20242;-90
2021/08/25 04:23:41;;;;;;;8.47;7.10;;;12.80;99.90;;;;;;5082932;28;20188;-90
2021/08/25 04:26:08;;;;;;;11.27;7.77;;;12.80;99.90;;;;;;5079033;28;20228;-90
2021/08/25 04:28:33;;;;;;;9.53;7.57;;;12.80;99.90;;;;;;5074620;28;20205;-90
2021/08/25 04:30:59;;;;;;;8.77;7.27;;;12.80;99.90;;;;;;5074846;28;20255;-90
2021/08/25 04:33:25;;;;;;;8.07;7.27;;;12.80;99.90;;;;;;5074795;28;20187;-90
2021/08/25 04:35:51;;;;;;;8.90;7.43;;;12.80;99.90;;;;;;5074608;28;20758;-90
2021/08/25 04:38:16;;;;;;;9.27;7.40;;;12.80;99.90;;;;;;5074589;28;20204;-90
2021/08/25 04:40:42;;;;;;;8.73;7.10;;;12.80;99.90;;;;;;5075423;28;20241;-88
2021/08/25 04:43:08;;;;;;;8.93;8.03;;;12.70;99.90;;;;;;5075355;28;20173;-89
2021/08/25 04:45:33;;;;;;;8.53;7.63;;;12.70;99.90;;;;;;5075933;28;20184;-89
2021/08/25 04:47:59;;;;;;;8.33;7.23;;;12.70;99.90;;;;;;5075118;28;20346;-89
2021/08/25 04:50:25;;;;;;;7.87;7.00;;;12.70;99.90;;;;;;5075299;28;20230;-91
2021/08/25 04:52:50;;;;;;;7.57;6.73;;;12.70;99.90;;;;;;5075173;28;20184;-88
2021/08/25 04:55:16;;;;;;;8.57;7.70;;;12.60;99.90;;;;;;5075866;28;20207;-88
2021/08/25 04:57:42;;;;;;;10.87;8.07;;;12.60;99.90;;;;;;5093157;28;20192;-87
2021/08/25 05:00:09;;;;;;;8.33;7.53;;;12.60;99.90;;;;;;5087254;28;20185;-88
2021/08/25 05:02:35;;;;;;;13.90;8.07;;;12.70;99.90;;;;;;5074992;28;20561;-88
2021/08/25 05:05:01;;;;;;;7.53;6.67;;;12.70;99.90;;;;;;5076081;28;20195;-88
2021/08/25 05:07:27;;;;;;;6.93;6.00;;;12.60;99.90;;;;;;5078669;28;20197;-88
2021/08/25 05:09:52;;;;;;;9.23;7.03;;;12.60;99.90;;;;;;5085564;28;20206;-88
2021/08/25 05:12:19;;;;;;;6.57;5.87;;;12.60;99.90;;;;;;5094116;28;20635;-88
2021/08/25 05:14:44;;;;;;;8.23;5.70;;;12.60;99.90;;;;;;5086061;28;20204;-88
2021/08/25 05:17:10;;;;;;;8.00;6.13;;;12.60;99.90;;;;;;5096139;28;20193;-88
2021/08/25 05:19:36;;;;;;;7.20;6.30;;;12.60;99.90;;;;;;5095837;28;20180;-88
2021/08/25 05:22:02;;;;;;;6.50;5.77;;;12.60;99.90;;;;;;5083874;28;20176;-91
2021/08/25 05:24:27;;;;;;;6.40;5.73;;;12.60;99.90;;;;;;5094007;28;20169;-88
2021/08/25 05:26:53;;;;;;;6.20;5.40;;;12.60;99.90;;;;;;5093331;28;20186;-88
2021/08/25 05:29:19;;;;;;;6.50;5.33;;;12.50;99.90;;;;;;5093339;28;20177;-88
2021/08/25 05:31:44;;;;;;;6.90;6.17;;;12.60;99.90;;;;;;5082401;28;20260;-89
2021/08/25 05:34:12;;;;;;;6.00;5.40;;;12.60;99.90;;;;;;5075396;28;20214;-87
2021/08/25 05:36:38;;;;;;;6.27;5.40;;;12.60;99.90;;;;;;5075103;28;20740;-88
2021/08/25 05:39:04;;;;;;;10.40;5.67;;;12.60;99.90;;;;;;5075745;28;20283;-89
2021/08/25 05:41:29;;;;;;;5.80;5.20;;;12.70;99.90;;;;;;5075772;28;20207;-89
2021/08/25 05:43:55;;;;;;;6.63;5.33;;;12.70;99.90;;;;;;5075589;28;20200;-88
2021/08/25 05:46:21;;;;;;;6.63;5.67;;;12.70;99.90;;;;;;5075107;28;20212;-88
2021/08/25 05:48:46;;;;;;;7.27;5.87;;;12.70;99.90;;;;;;5075412;28;20203;-88
2021/08/25 05:51:12;;;;;;;7.50;5.83;;;12.70;99.90;;;;;;5075130;28;20585;-88
2021/08/25 05:53:38;;;;;;;7.20;6.40;;;12.80;99.90;;;;;;5075322;28;20184;-88
2021/08/25 05:56:04;;;;;;;7.47;5.73;;;12.80;99.90;;;;;;5075349;28;20666;-89
2021/08/25 05:58:29;;;;;;;6.97;5.90;;;12.80;99.90;;;;;;5075690;28;20200;-89
2021/08/25 06:00:55;;;;;;;7.03;5.83;;;12.80;99.90;;;;;;5075706;28;20242;-88
2021/08/25 06:03:21;;;;;;;7.10;5.90;;;12.80;99.90;;;;;;5074727;28;20268;-88
2021/08/25 06:05:46;;;;;;;9.43;6.17;;;12.80;99.90;;;;;;5075145;28;20191;-88
2021/08/25 06:08:12;;;;;;;6.03;5.37;;;12.90;99.90;;;;;;5075001;28;20270;-88
2021/08/25 06:10:38;;;;;;;6.23;5.63;;;12.90;99.90;;;;;;5075067;28;20193;-88
2021/08/25 06:13:04;;;;;;;6.60;5.73;;;13.00;99.90;;;;;;5075605;28;20185;-89
2021/08/25 06:15:30;;;;;;;7.33;5.93;;;13.00;99.90;;;;;;5074801;28;20593;-89
2021/08/25 06:17:55;;;;;;;7.07;6.20;;;13.00;99.90;;;;;;5074495;28;20208;-88
2021/08/25 06:20:24;;;;;;;7.13;6.03;;;13.00;99.90;;;;;;5074691;28;20183;-88
2021/08/25 06:22:50;;;;;;;6.70;5.77;;;13.10;99.90;;;;;;5074566;28;20177;-88
2021/08/25 06:25:16;;;;;;;6.97;6.27;;;13.10;99.90;;;;;;5074711;28;20185;-88
2021/08/25 06:27:41;;;;;;;6.87;5.80;;;13.20;99.90;;;;;;5075020;28;20204;-88
2021/08/25 06:30:07;;;;;;;8.03;6.53;;;13.20;99.90;;;;;;5075061;28;20177;-88
2021/08/25 06:32:33;;;;;;;9.67;6.33;;;13.30;99.90;;;;;;5076881;28;20537;-88
2021/08/25 06:34:59;;;;;;;5.70;5.13;;;13.30;99.90;;;;;;5076424;28;20260;-88
2021/08/25 06:37:25;;;;;;;6.23;5.33;;;13.40;99.90;;;;;;5075737;28;20197;-88
2021/08/25 06:39:50;;;;;;;6.13;5.53;;;13.40;99.90;;;;;;5075576;28;20196;-89
2021/08/25 06:42:16;;;;;;;6.57;5.87;;;13.50;99.90;;;;;;5075906;28;20191;-88
2021/08/25 06:44:41;;;;;;;5.60;4.80;;;13.60;99.90;;;;;;5077808;28;20177;-88
2021/08/25 06:47:07;;;;;;;8.03;4.77;;;13.50;99.90;;;;;;5079621;28;20193;-88
2021/08/25 06:49:33;;;;;;;6.87;5.43;;;13.50;99.90;;;;;;5078911;28;20208;-88
2021/08/25 06:51:58;;;;;;;7.97;4.97;;;13.40;99.90;;;;;;5079209;28;20176;-88
2021/08/25 06:54:24;;;;;;;6.87;5.03;;;13.40;99.90;;;;;;5089365;28;20176;-88
2021/08/25 06:56:50;;;;;;;5.67;4.30;;;13.40;99.90;;;;;;5089678;28;20230;-88
2021/08/25 06:59:16;;;;;;;5.60;4.63;;;13.40;99.90;;;;;;5080088;28;20173;-88
2021/08/25 07:01:42;;;;;;;6.07;4.67;;;13.40;99.90;;;;;;5078111;28;20172;-88
2021/08/25 07:04:07;;;;;;;8.57;5.47;;;13.50;99.90;;;;;;5078659;28;20184;-88
2021/08/25 07:06:33;;;;;;;8.23;4.40;;;13.50;99.90;;;;;;5078474;28;20520;-88
2021/08/25 07:08:58;;;;;;;6.20;4.93;;;13.60;99.90;;;;;;5078368;28;20204;-89
2021/08/25 07:11:24;;;;;;;5.00;4.50;;;13.60;99.90;;;;;;5078398;28;20177;-88
2021/08/25 07:13:50;;;;;;;5.67;5.07;;;13.70;99.90;;;;;;5078333;28;20631;-88
2021/08/25 07:16:16;;;;;;;4.97;4.47;;;13.70;99.90;;;;;;5078244;28;20208;-89
2021/08/25 07:18:43;;;;;;;6.57;5.30;;;13.80;99.90;;;;;;5078622;28;20197;-88
2021/08/25 07:21:10;;;;;;;5.47;4.43;;;13.80;99.90;;;;;;5080536;28;20180;-88
2021/08/25 07:23:36;;;;;;;4.67;4.17;;;13.90;99.90;;;;;;5079655;28;20270;-88
2021/08/25 07:26:03;;;;;;;6.53;4.93;;;14.00;99.90;;;;;;5080023;28;20181;-88
2021/08/25 07:28:28;;;;;;;5.07;4.53;;;14.00;99.90;;;;;;5079465;28;20212;-88
2021/08/25 07:30:54;;;;;;;8.07;4.50;;;14.10;99.90;;;;;;5079590;28;20267;-88
2021/08/25 07:33:22;;;;;;;7.67;5.30;;;14.10;99.90;;;;;;5093585;28;20234;-88
2021/08/25 07:35:48;;;;;;;4.83;4.40;;;14.20;99.90;;;;;;5097765;28;20230;-88
2021/08/25 07:38:15;;;;;;;5.40;4.63;;;14.20;99.90;;;;;;5089853;28;20550;-88
2021/08/25 07:40:41;;;;;;;4.53;4.10;;;14.30;99.90;;;;;;5077092;28;20207;-88
2021/08/25 07:43:07;;;;;;;6.27;4.63;;;14.40;99.90;;;;;;5077060;28;20180;-88
2021/08/25 07:45:35;;;;;;;4.43;4.03;;;14.50;99.90;;;;;;5077133;28;20180;-88
2021/08/25 07:48:01;;;;;;;6.27;4.17;;;14.70;99.90;;;;;;5076775;28;20209;-88
2021/08/25 07:50:26;;;;;;;5.77;4.30;;;14.80;99.90;;;;;;5078303;28;20265;-88
2021/08/25 07:52:52;;;;;;;5.03;4.23;;;14.90;99.90;;;;;;5077620;28;20202;-89
2021/08/25 07:55:18;;;;;;;6.20;4.30;;;15.00;99.90;;;;;;5076896;28;20231;-88
2021/08/25 07:57:43;;;;;;;4.93;3.93;;;15.20;99.90;;;;;;5093277;28;20205;-88
2021/08/25 08:00:10;;;;;;;6.07;4.67;;;15.30;99.90;;;;;;5088453;28;20276;-88
2021/08/25 08:02:36;;;;;;;5.33;4.10;;;15.30;99.90;;;;;;5076439;28;20186;-88
2021/08/25 08:05:04;;;;;;;6.63;4.10;;;15.50;99.90;;;;;;5076479;28;20207;-89
2021/08/25 08:07:29;;;;;;;6.07;3.60;;;15.60;99.90;;;;;;5082416;28;20200;-89
2021/08/25 08:09:55;;;;;;;7.00;3.90;;;15.80;99.90;;;;;;5085071;28;20202;-88
2021/08/25 08:12:21;;;;;;;4.30;3.90;;;15.90;99.90;;;;;;5087151;28;20184;-89
2021/08/25 08:14:46;;;;;;;5.13;4.00;;;16.00;99.90;;;;;;5089499;28;20211;-89
2021/08/25 08:17:13;;;;;;;5.20;3.70;;;16.20;99.90;;;;;;5089109;28;20280;-89
2021/08/25 08:19:38;;;;;;;5.43;3.70;;;16.30;99.90;;;;;;5077815;28;20173;-89
2021/08/25 08:22:04;;;;;;;5.03;3.90;;;16.50;99.90;;;;;;5076442;28;20271;-89
2021/08/25 08:24:30;;;;;;;4.23;3.83;;;16.60;99.90;;;;;;5076294;28;20549;-88
2021/08/25 08:26:58;;;;;;;4.97;3.50;;;16.80;99.90;;;;;;5076890;28;20177;-89
2021/08/25 08:29:24;;;;;;;4.93;3.73;;;17.00;99.90;;;;;;5076648;28;20656;-89
2021/08/25 08:31:49;;;;;;;3.73;3.33;;;17.20;99.90;;;;;;5076888;28;20184;-88
2021/08/25 08:34:15;;;;;;;3.57;3.27;;;17.40;99.90;;;;;;5077341;28;20257;-89
2021/08/25 08:36:41;;;;;;;5.20;3.60;;;17.50;99.90;;;;;;5076695;28;20701;-89
2021/08/25 08:39:07;;;;;;;5.37;3.60;;;17.70;99.90;;;;;;5077964;28;20329;-89
2021/08/25 08:41:33;;;;;;;3.87;3.47;;;18.00;99.90;;;;;;5079029;28;20226;-89
2021/08/25 08:43:58;;;;;;;5.23;3.07;;;18.10;99.90;;;;;;5077626;28;20287;-89
2021/08/25 08:46:24;;;;;;;4.60;4.20;;;18.20;99.90;;;;;;5077085;28;20275;-89
2021/08/25 08:48:52;;;;;;;3.53;3.23;;;18.50;99.90;;;;;;5076722;28;20664;-89
2021/08/25 08:51:26;;;;;;;4.20;3.23;;;18.60;99.90;;;;;;5077739;28;20250;-89
2021/08/25 08:53:53;;;;;;;5.13;3.40;;;18.80;99.90;;;;;;5076768;28;20619;-89
2021/08/25 08:56:19;;;;;;;4.40;3.40;;;18.90;99.90;;;;;;5076829;28;20201;-89
2021/08/25 08:58:45;;;;;;;4.03;3.10;;;19.10;99.90;;;;;;5076477;28;20252;-90
2021/08/25 09:01:11;;;;;;;4.63;3.80;;;19.10;99.90;;;;;;5077577;28;20182;-89
2021/08/25 09:03:39;;;;;;;4.80;3.60;;;19.00;99.90;;;;;;5077662;28;20185;-89
2021/08/25 09:06:06;;;;;;;4.87;3.90;;;18.70;99.90;;;;;;5077477;28;20192;-89
2021/08/25 09:08:35;;;;;;;5.20;3.03;;;18.50;99.90;;;;;;5077338;28;20211;-88
2021/08/25 09:11:07;;;;;;;4.67;3.30;;;18.40;99.90;;;;;;5078038;28;20190;-88
2021/08/25 09:13:49;;;;;;;4.07;3.57;;;18.60;99.90;;;;;;5075981;28;20636;-89
2021/08/25 09:16:28;;;;;;;4.07;3.50;;;18.60;99.90;;;;;;5075849;28;20240;-89
2021/08/25 09:19:08;;;;;;;4.87;3.70;;;18.70;99.90;;;;;;5075616;28;20192;-89
2021/08/25 09:21:45;;;;;;;5.40;3.47;;;18.80;99.90;;;;;;5076030;28;20173;-89
2021/08/25 09:24:12;;;;;;;4.93;3.53;;;18.70;99.90;;;;;;5075671;28;20178;-88
2021/08/25 09:27:12;;;;;;;7.37;3.30;;;18.60;99.90;;;;;;5075960;28;20199;-89
2021/08/25 09:29:39;;;;;;;4.60;3.63;;;18.50;99.90;;;;;;5075606;28;20551;-89
2021/08/25 09:32:21;;;;;;;4.00;3.60;;;18.70;99.90;;;;;;5075738;28;20286;-89
2021/08/25 09:34:56;;;;;;;3.70;3.20;;;19.20;99.90;;;;;;5075548;28;20209;-88
2021/08/25 09:37:24;;;;;;;4.17;3.30;;;19.30;99.90;;;;;;5075737;28;20288;-90
2021/08/25 09:39:52;;;;;;;4.50;3.60;;;19.30;99.90;;;;;;5075774;28;20199;-89
2021/08/25 09:42:21;;;;;;;6.33;3.33;;;19.50;99.90;;;;;;5075484;28;20181;-90
2021/08/25 09:45:00;;;;;;;3.90;3.20;;;19.60;99.90;;;;;;5075556;28;20189;-89
2021/08/25 09:47:45;;;;;;;5.10;3.63;;;19.70;99.90;;;;;;5075827;28;20262;-88
2021/08/25 09:50:11;;;;;;;5.53;3.77;;;20.20;99.90;;;;;;5076425;28;20184;-88
2021/08/25 09:52:37;;;;;;;4.83;3.00;;;20.40;99.90;;;;;;5076582;28;20177;-89
2021/08/25 09:55:03;;;;;;;4.93;2.97;;;20.70;99.90;;;;;;5075206;28;20260;-88
2021/08/25 09:57:37;;;;;;;4.33;3.03;;;21.10;99.90;;;;;;5075439;28;20206;-88
2021/08/25 10:00:05;;;;;;;3.70;2.93;;;21.40;99.90;;;;;;5081251;28;20181;-88
2021/08/25 10:02:31;;;;;;;3.73;3.13;;;21.60;99.90;;;;;;5092742;28;20187;-89
2021/08/25 10:04:57;;;;;;;4.57;2.70;;;21.90;99.90;;;;;;5095571;28;20164;-89
2021/08/25 10:07:23;;;;;;;3.37;2.63;;;21.70;99.90;;;;;;5095681;28;20569;-88
2021/08/25 10:09:48;;;;;;;4.13;2.90;;;21.50;99.90;;;;;;5076909;28;20183;-88
2021/08/25 10:12:15;;;;;;;3.13;2.83;;;21.00;99.90;;;;;;5075107;28;20540;-89
2021/08/25 10:14:40;;;;;;;3.43;3.10;;;20.70;99.90;;;;;;5076301;28;20192;-88
2021/08/25 10:17:06;;;;;;;3.87;3.20;;;20.70;99.90;;;;;;5077476;28;20200;-89
2021/08/25 10:19:36;;;;;;;3.57;3.20;;;20.80;99.90;;;;;;5076189;28;20173;-88
2021/08/25 10:22:23;;;;;;;3.70;3.30;;;20.80;99.90;;;;;;5078495;28;20186;-88
2021/08/25 10:25:03;;;;;;;4.20;2.77;;;21.20;99.90;;;;;;5078969;28;20181;-88
2021/08/25 10:27:30;;;;;;;4.87;2.60;;;21.50;99.90;;;;;;5078760;28;20291;-88
2021/08/25 10:30:21;;;;;;;3.30;3.00;;;21.70;99.90;;;;;;5078894;28;20627;-89
2021/08/25 10:32:56;;;;;;;3.47;2.70;;;22.00;99.90;;;;;;5080308;28;20242;-89
2021/08/25 10:35:27;;;;;;;4.57;2.83;;;22.10;99.90;;;;;;5079786;28;20566;-89
2021/08/25 10:38:13;;;;;;;4.53;3.30;;;22.30;99.90;;;;;;5078669;28;20207;-89
2021/08/25 10:40:38;;;;;;;5.83;3.20;;;22.50;99.90;;;;;;5078468;28;20200;-89
2021/08/25 10:43:04;;;;;;;3.00;2.70;;;22.80;99.90;;;;;;5079848;28;20181;-89
2021/08/25 10:45:39;;;;;;;3.90;2.67;;;23.10;99.90;;;;;;5079786;28;20181;-89
2021/08/25 10:48:09;;;;;;;4.13;2.83;;;23.30;99.90;;;;;;5078494;28;20192;-89
2021/08/25 10:51:01;;;;;;;3.37;2.73;;;23.40;99.90;;;;;;5081553;28;20232;-89
2021/08/25 10:53:32;;;;;;;4.10;2.90;;;22.90;99.90;;;;;;5085458;28;20165;-89
2021/08/25 10:56:27;;;;;;;4.23;2.63;;;22.90;99.90;;;;;;5088547;28;20207;-89
2021/08/25 10:58:56;;;;;;;3.60;2.83;;;23.10;99.90;;;;;;5095269;28;20204;-90
2021/08/25 11:01:35;;;;;;;2.70;2.43;;;23.30;99.90;;;;;;5082114;28;20185;-89
2021/08/25 11:04:03;;;;;;;2.90;2.40;;;23.40;99.90;;;;;;5078263;28;20185;-89
2021/08/25 11:06:39;;;;;;;4.20;2.77;;;23.50;99.90;;;;;;5078707;28;20190;-89
2021/08/25 11:09:13;;;;;;;4.07;3.13;;;23.60;99.90;;;;;;5077880;28;20206;-89
2021/08/25 11:11:39;;;;;;;2.90;2.60;;;23.60;99.90;;;;;;5079069;28;20163;-89
2021/08/25 11:14:05;;;;;;;2.80;2.30;;;23.80;99.90;;;;;;5077871;28;20204;-89
2021/08/25 11:16:30;;;;;;;6.80;2.70;;;23.90;99.90;;;;;;5077552;28;20210;-88
2021/08/25 11:18:56;;;;;;;4.10;3.03;;;24.10;99.90;;;;;;5077676;28;20207;-88
2021/08/25 11:21:22;;;;;;;5.30;3.07;;;24.20;99.90;;;;;;5077722;28;20174;-89
2021/08/25 11:23:55;;;;;;;2.90;2.37;;;24.40;99.90;;;;;;5077295;28;20187;-89
2021/08/25 11:26:21;;;;;;;3.97;2.50;;;24.40;99.90;;;;;;5077545;28;20174;-89
2021/08/25 11:28:47;;;;;;;4.27;2.40;;;24.40;99.90;;;;;;5077867;28;20203;-89
2021/08/25 11:31:14;;;;;;;3.33;2.80;;;24.50;99.90;;;;;;5077526;28;20186;-89
2021/08/25 11:33:46;;;;;;;3.27;2.30;;;24.50;99.90;;;;;;5077924;28;20187;-89
2021/08/25 11:36:11;;;;;;;5.30;2.67;;;24.60;99.90;;;;;;5078464;28;20215;-89
2021/08/25 11:38:37;;;;;;;3.80;2.97;;;24.60;99.90;;;;;;5079130;28;20196;-89
2021/08/25 11:41:03;;;;;;;5.40;2.70;;;24.50;99.90;;;;;;5079791;28;20515;-89
2021/08/25 11:43:29;;;;;;;3.80;2.70;;;24.50;99.90;;;;;;5078367;28;20181;-89
2021/08/25 11:45:56;;;;;;;4.37;2.67;;;24.30;99.90;;;;;;5078609;28;20236;-89
2021/08/25 11:48:26;;;;;;;3.57;2.70;;;24.00;99.90;;;;;;5079315;28;20201;-89
2021/08/25 11:50:52;;;;;;;2.90;2.30;;;24.10;99.90;;;;;;5079276;28;20184;-89
2021/08/25 11:53:23;;;;;;;3.77;2.67;;;24.40;99.90;;;;;;5078708;28;20181;-89
2021/08/25 11:55:52;;;;;;;3.07;2.50;;;24.50;99.90;;;;;;5078758;28;20197;-89
2021/08/25 11:58:26;;;;;;;4.87;2.70;;;24.80;99.90;;;;;;5077869;28;20197;-89
2021/08/25 12:00:53;;;;;;;3.63;2.47;;;24.90;99.90;;;;;;5078691;28;20192;-89
2021/08/25 12:03:19;;;;;;;3.00;2.70;;;25.10;99.90;;;;;;5077456;28;20298;-89
2021/08/25 12:05:55;;;;;;;5.70;2.90;;;24.90;99.90;;;;;;5079500;28;20191;-89
2021/08/25 12:08:21;;;;;;;6.17;2.50;;;24.10;99.90;;;;;;5080181;28;20628;-89
2021/08/25 12:11:05;;;;;;;4.90;2.40;;;23.80;99.90;;;;;;5082228;28;20181;-89
2021/08/25 12:13:31;;;;;;;2.70;2.50;;;23.90;99.90;;;;;;5095360;28;20255;-89
2021/08/25 12:15:58;;;;;;;5.67;2.60;;;23.80;99.90;;;;;;5093006;28;20215;-89
2021/08/25 12:18:26;;;;;;;5.33;2.83;;;23.90;99.90;;;;;;5094674;28;20185;-89
2021/08/25 12:20:54;;;;;;;3.70;2.70;;;24.30;99.90;;;;;;5086513;28;20169;-89
2021/08/25 12:23:23;;;;;;;3.40;2.40;;;24.60;99.90;;;;;;5076484;28;20183;-89
2021/08/25 12:25:56;;;;;;;2.73;2.30;;;24.90;99.90;;;;;;5076429;28;20178;-89
2021/08/25 12:28:35;;;;;;;5.50;2.77;;;25.10;99.90;;;;;;5076397;28;20208;-89
2021/08/25 12:31:14;;;;;;;4.37;2.63;;;25.20;99.90;;;;;;5077087;28;20177;-89
2021/08/25 12:33:42;;;;;;;4.27;3.00;;;25.20;99.90;;;;;;5077275;28;20212;-89
2021/08/25 12:36:27;;;;;;;4.17;3.10;;;25.10;99.90;;;;;;5077885;28;20261;-89
2021/08/25 12:39:13;;;;;;;3.90;2.60;;;25.00;99.90;;;;;;5078854;28;20228;-89
2021/08/25 12:41:43;;;;;;;3.87;2.80;;;24.70;99.90;;;;;;5078764;28;20174;-89
2021/08/25 12:44:09;;;;;;;3.43;2.70;;;24.80;99.90;;;;;;5076471;28;20580;-88
2021/08/25 12:46:55;;;;;;;5.50;3.07;;;24.90;99.90;;;;;;5076225;28;20182;-88
2021/08/25 12:49:23;;;;;;;3.70;2.40;;;25.00;99.90;;;;;;5076647;28;20184;-89